ソウル/仁川 の空港の天気 - METARとTAF

仁川国際空港 ( RKSI / ICN ) - 韓国 仁川広域市 (ソウル特別市近郊)
飛行場実況気象(Metar)
観測時間02/17 23:30 KST (02/17 14:30 UTC)
風向・風速西北西 2m/s
視程10km以上
天気現象
なし
気温0℃
湿度59%
気圧1027hPa
METARRKSI 171430Z 30004KT CAVOK M00/M07 Q1027 NOSIG
過去の天気等 Google飛行場航空写真 Wunderground天気予報

過去48時間のMETAR

飛行場予報(TAF)
発表時間: 2/17 20:00 KST (2/17 11:00 UTC)
予報対象時間: 17日21時 KST ~ 19日3時 KST
風向・風速北北西 5m/s
視程10km以上
なし
18日0時 KST ~ 18日1時 KST に徐々に
風向・風速北東 3m/s
18日11時 KST ~ 18日12時 KST に徐々に
風向・風速西南西 3m/s
18日14時 KST ~ 18日15時 KST に徐々に
風向・風速北西 4m/s
19日0時 KST ~ 19日1時 KST に徐々に
風向・風速東南東 3m/s
視程6000m
少しの雲 雲底高度 300m
全天の8割程度の雲 雲底高度 760m
全天を覆う雲 雲底高度 2440m
TAF RKSI 171100Z 1712/1818 33010KT CAVOK TNM04/1721Z TX04/1805Z
BECMG 1715/1716 05006KT
BECMG 1802/1803 25006KT
BECMG 1805/1806 32007KT
BECMG 1815/1816 11006KT 6000 FEW010 BKN025 OVC080